Time;durP1;ratioP1;P1;durP2;ratioP2;P2;SDS_P1;SDS_P2;PMS_P1;PMS_P2;Temp;Humidity;BMP_temperature;BMP_pressure;BME280_temperature;BME280_humidity;BME280_pressure;Samples;Min_cycle;Max_cycle;Signal;HPM_P1;HPM_P2
2022/02/28 00:00:25;;;;;;;12.82;5.25;;;;;;;20.96;16.13;99608.06;5083556;28;20044;-79
2022/02/28 00:02:51;;;;;;;13.73;6.07;;;;;;;18.89;18.20;99600.06;5085956;28;20412;-78
2022/02/28 00:05:18;;;;;;;12.55;5.82;;;;;;;20.20;16.91;99594.44;5090355;28;20028;-79
2022/02/28 00:07:44;;;;;;;11.43;4.43;;;;;;;20.31;16.85;99595.44;5089240;28;20499;-79
2022/02/28 00:10:11;;;;;;;12.10;5.20;;;;;;;20.81;16.42;99597.88;5085402;28;20036;-79
2022/02/28 00:12:37;;;;;;;11.93;5.00;;;;;;;21.35;15.82;99603.88;5086122;28;20168;-79
2022/02/28 00:15:06;;;;;;;19.00;5.85;;;;;;;20.93;16.25;99605.25;5084684;28;20505;-79
2022/02/28 00:17:33;;;;;;;10.63;5.25;;;;;;;21.43;15.86;99604.78;5084465;28;20032;-78
2022/02/28 00:20:00;;;;;;;15.35;5.57;;;;;;;21.90;15.41;99595.78;5086596;28;20036;-78
2022/02/28 00:22:26;;;;;;;14.43;5.88;;;;;;;22.24;15.08;99591.72;5084472;28;20028;-78
2022/02/28 00:24:52;;;;;;;9.98;5.22;;;;;;;22.37;15.06;99592.25;5083763;28;20048;-79
2022/02/28 00:27:18;;;;;;;11.45;4.90;;;;;;;21.18;15.94;99593.28;5085080;28;20032;-78
2022/02/28 00:29:44;;;;;;;14.68;5.50;;;;;;;18.54;18.57;99594.47;5087226;28;20446;-78
2022/02/28 00:32:10;;;;;;;13.90;6.18;;;;;;;17.85;19.14;99599.78;5089758;28;20588;-78
2022/02/28 00:34:37;;;;;;;12.23;5.32;;;;;;;18.45;18.83;99591.06;5089745;28;20024;-78
2022/02/28 00:37:03;;;;;;;11.00;4.80;;;;;;;18.98;18.34;99585.94;5073312;28;21623;-78
2022/02/28 00:39:29;;;;;;;12.60;5.72;;;;;;;19.40;17.76;99591.66;5090675;28;20028;-79
2022/02/28 00:41:55;;;;;;;15.07;6.25;;;;;;;17.90;19.06;99591.16;5091255;28;20032;-79
2022/02/28 00:44:22;;;;;;;14.63;6.72;;;;;;;16.68;20.53;99592.72;5084187;28;20491;-78
2022/02/28 00:46:48;;;;;;;15.95;6.32;;;;;;;16.98;20.50;99587.69;5086849;28;20032;-79
2022/02/28 00:49:14;;;;;;;13.05;5.10;;;;;;;17.32;19.77;99583.56;5086176;28;20040;-79
2022/02/28 00:51:40;;;;;;;13.93;6.25;;;;;;;15.57;21.62;99586.50;5087580;28;20085;-78
2022/02/28 00:54:06;;;;;;;13.98;6.40;;;;;;;14.69;22.31;99574.81;5086820;28;20051;-79
2022/02/28 00:56:32;;;;;;;13.70;5.85;;;;;;;14.57;23.03;99582.19;5090372;28;20457;-78
2022/02/28 00:58:58;;;;;;;12.60;6.00;;;;;;;13.80;23.67;99581.38;5082095;28;20067;-78
2022/02/28 01:01:24;;;;;;;16.05;6.70;;;;;;;13.88;23.94;99575.00;5082266;28;20036;-79
2022/02/28 01:03:51;;;;;;;10.43;5.53;;;;;;;14.39;23.21;99575.97;5087723;28;20024;-79
2022/02/28 01:06:17;;;;;;;14.18;7.22;;;;;;;15.76;21.26;99572.13;5092715;28;20043;-79
2022/02/28 01:08:43;;;;;;;14.05;5.82;;;;;;;17.09;19.86;99564.66;5086462;28;20371;-79
2022/02/28 01:11:09;;;;;;;15.85;5.75;;;;;;;16.43;20.43;99558.59;5086917;28;20032;-79
2022/02/28 01:13:36;;;;;;;12.45;5.70;;;;;;;16.72;20.35;99557.56;5086170;28;20032;-79
2022/02/28 01:16:02;;;;;;;12.35;5.43;;;;;;;18.52;18.07;99548.72;5067700;28;20039;-79
2022/02/28 01:18:28;;;;;;;13.70;5.80;;;;;;;18.62;17.74;99545.38;5080327;28;20032;-79
2022/02/28 01:20:55;;;;;;;11.90;5.78;;;;;;;19.64;16.82;99550.38;5082049;28;20029;-79
2022/02/28 01:23:21;;;;;;;10.18;5.15;;;;;;;17.23;18.54;99553.16;5085443;28;20031;-79
2022/02/28 01:25:47;;;;;;;11.52;5.30;;;;;;;17.50;18.96;99555.16;5086269;28;20039;-79
2022/02/28 01:28:13;;;;;;;16.30;6.05;;;;;;;17.42;19.08;99552.50;5082148;28;20050;-79
2022/02/28 01:30:40;;;;;;;10.90;5.30;;;;;;;19.25;17.31;99551.56;5086017;28;20486;-79
2022/02/28 01:33:06;;;;;;;12.00;4.80;;;;;;;20.51;16.02;99555.16;5085765;28;20037;-79
2022/02/28 01:35:32;;;;;;;12.48;4.90;;;;;;;21.33;15.37;99555.16;5084999;28;20020;-79
2022/02/28 01:37:59;;;;;;;12.80;4.78;;;;;;;21.80;14.73;99546.09;5086840;28;20046;-79
2022/02/28 01:40:26;;;;;;;9.95;4.38;;;;;;;22.18;14.43;99544.91;5089138;28;20051;-79
2022/02/28 01:42:52;;;;;;;12.18;4.93;;;;;;;22.40;14.10;99541.13;5083903;28;20477;-79
2022/02/28 01:45:23;;;;;;;13.48;4.60;;;;;;;22.56;13.96;99541.66;5086594;28;20032;-79
2022/02/28 01:47:56;;;;;;;11.32;4.53;;;;;;;22.60;13.82;99536.88;5072285;28;20059;-79
2022/02/28 01:50:23;;;;;;;9.18;3.97;;;;;;;22.69;13.77;99535.38;5069686;28;20492;-79
2022/02/28 01:52:50;;;;;;;8.32;3.97;;;;;;;22.82;13.53;99537.84;5070231;28;20032;-79
2022/02/28 01:55:18;;;;;;;10.57;4.05;;;;;;;22.65;13.64;99528.13;5071903;28;20082;-79
2022/02/28 01:57:45;;;;;;;9.85;4.15;;;;;;;22.56;13.63;99536.84;5070236;28;20043;-79
2022/02/28 02:00:15;;;;;;;10.10;3.97;;;;;;;22.62;13.68;99540.09;5072704;28;20119;-79
2022/02/28 02:02:41;;;;;;;11.35;4.68;;;;;;;22.71;13.63;99537.00;5083614;28;20130;-79
2022/02/28 02:05:08;;;;;;;13.13;5.25;;;;;;;22.73;13.69;99537.41;5084618;28;20028;-79
2022/02/28 02:07:35;;;;;;;13.38;4.97;;;;;;;22.62;13.56;99537.31;5082929;28;20551;-79
2022/02/28 02:10:05;;;;;;;11.00;4.78;;;;;;;22.44;13.54;99528.75;5082896;28;20062;-79
2022/02/28 02:12:32;;;;;;;9.25;4.50;;;;;;;22.57;13.68;99518.84;5081330;28;20048;-79
2022/02/28 02:14:59;;;;;;;10.57;4.15;;;;;;;22.50;13.87;99523.59;5065735;28;20036;-79
2022/02/28 02:17:25;;;;;;;11.50;4.43;;;;;;;22.26;13.83;99530.63;5084988;28;20465;-79
2022/02/28 02:19:55;;;;;;;7.57;3.72;;;;;;;21.98;14.07;99528.34;5086390;28;20039;-79
2022/02/28 02:22:22;;;;;;;11.67;4.27;;;;;;;21.59;14.40;99531.88;5082657;28;20509;-79
2022/02/28 02:24:52;;;;;;;11.75;4.93;;;;;;;21.48;14.39;99536.56;5078510;28;20052;-79
2022/02/28 02:27:18;;;;;;;10.13;5.20;;;;;;;21.41;14.59;99528.91;5080533;28;20032;-79
2022/02/28 02:29:45;;;;;;;10.02;4.00;;;;;;;19.57;15.88;99525.19;5066861;28;20027;-79
2022/02/28 02:32:18;;;;;;;15.38;5.65;;;;;;;19.95;15.79;99525.06;5086737;28;20048;-79
2022/02/28 02:34:45;;;;;;;12.80;4.95;;;;;;;20.48;15.32;99520.44;5082154;28;20032;-79
2022/02/28 02:37:12;;;;;;;11.98;5.13;;;;;;;20.88;14.91;99522.63;5081183;28;20109;-79
2022/02/28 02:39:42;;;;;;;10.90;4.75;;;;;;;21.20;14.80;99520.25;5070507;28;20504;-79
2022/02/28 02:42:09;;;;;;;9.63;4.80;;;;;;;20.93;14.96;99522.28;5086617;28;20043;-79
2022/02/28 02:44:36;;;;;;;8.20;3.50;;;;;;;19.38;15.92;99521.59;5075751;28;20024;-79
2022/02/28 02:47:03;;;;;;;12.77;5.20;;;;;;;20.18;15.72;99527.06;5086320;28;20025;-79
2022/02/28 02:49:30;;;;;;;9.48;4.07;;;;;;;20.47;15.44;99529.97;5071371;28;20086;-79
2022/02/28 02:51:57;;;;;;;13.85;4.95;;;;;;;21.15;15.04;99526.19;5070676;28;20382;-79
2022/02/28 02:54:23;;;;;;;11.55;5.35;;;;;;;21.74;14.67;99523.28;5078343;28;20028;-79
2022/02/28 02:56:49;;;;;;;11.43;3.97;;;;;;;19.81;15.78;99533.19;5085273;28;20040;-79
2022/02/28 02:59:15;;;;;;;11.00;4.03;;;;;;;19.72;16.04;99535.41;5087538;28;20112;-79
2022/02/28 03:01:41;;;;;;;11.73;4.47;;;;;;;20.19;15.66;99542.59;5084645;28;20051;-79
2022/02/28 03:04:07;;;;;;;12.75;5.45;;;;;;;20.95;15.09;99530.28;5086133;28;20032;-79
2022/02/28 03:06:35;;;;;;;11.15;4.68;;;;;;;21.64;14.65;99537.94;5083845;28;20032;-79
2022/02/28 03:09:01;;;;;;;12.18;4.75;;;;;;;22.19;14.09;99530.56;5079665;28;20035;-79
2022/02/28 03:11:27;;;;;;;11.02;4.78;;;;;;;22.06;14.07;99531.22;5084597;28;20039;-79
2022/02/28 03:13:53;;;;;;;9.35;4.53;;;;;;;21.74;14.44;99526.09;5082090;28;20583;-79
2022/02/28 03:16:19;;;;;;;9.40;4.07;;;;;;;22.05;14.02;99532.41;5086693;28;20020;-79
2022/02/28 03:18:45;;;;;;;10.70;4.70;;;;;;;21.79;14.14;99530.53;5082532;28;20031;-79
2022/02/28 03:21:11;;;;;;;9.95;3.60;;;;;;;21.07;14.64;99535.66;5082389;28;20028;-79
2022/02/28 03:23:37;;;;;;;8.35;4.50;;;;;;;21.07;14.63;99536.47;5082172;28;20040;-80
2022/02/28 03:26:04;;;;;;;11.25;4.50;;;;;;;21.26;14.41;99538.31;5081006;28;20114;-79
2022/02/28 03:28:30;;;;;;;10.25;3.55;;;;;;;20.90;14.42;99538.97;5083321;28;20054;-79
2022/02/28 03:30:56;;;;;;;14.10;5.57;;;;;;;20.44;15.33;99541.88;5080569;28;20036;-79
2022/02/28 03:33:22;;;;;;;13.07;4.85;;;;;;;20.80;14.96;99540.44;5083304;28;20032;-80
2022/02/28 03:35:48;;;;;;;8.55;4.30;;;;;;;21.40;14.61;99544.06;5078665;28;20032;-80
2022/02/28 03:38:14;;;;;;;14.55;5.18;;;;;;;21.81;14.32;99539.34;5079489;28;20038;-80
2022/02/28 03:40:40;;;;;;;10.80;4.72;;;;;;;22.20;13.96;99537.75;5079969;28;20063;-79
2022/02/28 03:43:07;;;;;;;9.07;4.72;;;;;;;22.16;13.87;99533.31;5084948;28;20067;-79
2022/02/28 03:45:33;;;;;;;12.35;5.07;;;;;;;21.98;13.83;99530.38;5083434;28;20036;-79
2022/02/28 03:47:59;;;;;;;8.60;3.95;;;;;;;20.46;15.05;99531.16;5085170;28;20024;-79
2022/02/28 03:50:25;;;;;;;11.63;4.13;;;;;;;21.02;14.69;99533.16;5080978;28;20075;-79
2022/02/28 03:52:53;;;;;;;11.00;4.05;;;;;;;20.99;14.71;99531.13;5086857;28;20024;-79
2022/02/28 03:55:22;;;;;;;11.85;4.28;;;;;;;20.34;15.46;99541.72;5065952;28;20062;-79
2022/02/28 03:57:49;;;;;;;7.15;3.83;;;;;;;20.36;15.45;99542.13;5079851;28;20028;-80
2022/02/28 04:00:15;;;;;;;12.63;4.68;;;;;;;20.73;15.10;99548.69;5079735;28;20420;-79
2022/02/28 04:02:42;;;;;;;9.55;4.20;;;;;;;19.04;16.23;99542.75;5080617;28;20111;-80
2022/02/28 04:05:08;;;;;;;11.13;5.55;;;;;;;18.83;16.96;99553.41;5083578;28;20028;-80
2022/02/28 04:07:35;;;;;;;15.52;5.15;;;;;;;19.75;15.98;99543.03;5071576;28;20031;-79
2022/02/28 04:10:03;;;;;;;11.63;5.00;;;;;;;20.74;15.40;99547.53;5086153;28;20440;-80
2022/02/28 04:12:30;;;;;;;9.70;4.00;;;;;;;19.92;15.72;99542.56;5082759;28;20403;-80
2022/02/28 04:14:56;;;;;;;13.45;4.75;;;;;;;20.26;15.59;99539.97;5085491;28;20031;-80
2022/02/28 04:17:22;;;;;;;9.93;4.47;;;;;;;17.48;18.36;99545.56;5086119;28;20456;-80
2022/02/28 04:19:49;;;;;;;9.32;4.15;;;;;;;17.77;17.92;99542.41;5086932;28;20039;-80
2022/02/28 04:22:15;;;;;;;7.65;4.15;;;;;;;16.74;19.33;99549.69;5086127;28;20071;-80
2022/02/28 04:24:41;;;;;;;10.52;4.03;;;;;;;17.55;18.25;99549.34;5070143;28;20417;-80
2022/02/28 04:27:08;;;;;;;11.65;4.53;;;;;;;14.86;21.02;99557.31;5084873;28;20040;-80
2022/02/28 04:29:34;;;;;;;11.60;5.32;;;;;;;15.61;20.42;99554.22;5072241;28;20100;-80
2022/02/28 04:32:00;;;;;;;11.50;4.75;;;;;;;15.96;20.00;99557.44;5091141;28;21114;-79
2022/02/28 04:34:27;;;;;;;9.43;4.63;;;;;;;17.69;18.03;99554.50;5089493;28;20528;-80
2022/02/28 04:36:53;;;;;;;13.02;4.80;;;;;;;17.89;17.49;99547.88;5085483;28;20110;-79
2022/02/28 04:39:19;;;;;;;7.40;3.80;;;;;;;16.46;19.12;99560.69;5087357;28;20032;-80
2022/02/28 04:41:45;;;;;;;13.35;4.93;;;;;;;16.15;19.72;99559.66;5088238;28;20036;-80
2022/02/28 04:44:12;;;;;;;10.70;4.43;;;;;;;18.40;16.99;99555.16;5066511;28;20038;-80
2022/02/28 04:46:38;;;;;;;15.13;5.18;;;;;;;18.75;16.56;99555.22;5087093;28;20032;-80
2022/02/28 04:49:04;;;;;;;14.40;4.40;;;;;;;19.45;15.75;99555.16;5083858;28;20059;-80
2022/02/28 04:51:30;;;;;;;12.05;4.20;;;;;;;19.67;15.68;99558.03;5083680;28;20099;-79
2022/02/28 04:53:56;;;;;;;10.27;4.18;;;;;;;18.58;16.52;99561.97;5087072;28;20032;-80
2022/02/28 04:56:22;;;;;;;13.38;5.40;;;;;;;17.62;17.89;99562.63;5081241;28;20032;-80
2022/02/28 04:58:48;;;;;;;11.00;4.75;;;;;;;18.92;16.24;99560.38;5082770;28;20036;-80
2022/02/28 05:01:14;;;;;;;13.95;4.80;;;;;;;18.69;16.26;99553.09;5084118;28;20082;-79
2022/02/28 05:03:41;;;;;;;12.90;4.60;;;;;;;19.10;15.90;99561.56;5089334;28;20043;-79
2022/02/28 05:06:07;;;;;;;12.23;4.90;;;;;;;18.17;16.89;99567.28;5087389;28;20110;-80
2022/02/28 05:08:33;;;;;;;10.73;5.07;;;;;;;17.11;18.20;99565.09;5081189;28;20128;-80
2022/02/28 05:10:59;;;;;;;14.88;5.32;;;;;;;18.80;16.19;99568.84;5084136;28;20021;-79
2022/02/28 05:13:25;;;;;;;10.40;4.70;;;;;;;19.75;15.57;99567.31;5084423;28;20043;-80
2022/02/28 05:15:51;;;;;;;12.60;4.57;;;;;;;20.36;14.79;99573.63;5087812;28;20024;-79
2022/02/28 05:18:17;;;;;;;14.18;5.07;;;;;;;20.74;14.54;99566.25;5088037;28;20039;-79
2022/02/28 05:20:45;;;;;;;8.55;3.83;;;;;;;20.32;14.76;99569.97;5083734;28;20028;-79
2022/02/28 05:23:11;;;;;;;12.73;4.35;;;;;;;20.58;14.43;99572.00;5083124;28;20043;-79
2022/02/28 05:25:37;;;;;;;11.85;4.65;;;;;;;20.91;14.26;99577.66;5085199;28;20527;-79
2022/02/28 05:28:03;;;;;;;9.02;3.80;;;;;;;21.05;14.14;99572.31;5083956;28;20048;-79
2022/02/28 05:30:30;;;;;;;9.18;3.80;;;;;;;20.99;14.17;99584.19;5085314;28;20032;-79
2022/02/28 05:32:56;;;;;;;12.88;4.97;;;;;;;20.79;14.31;99574.31;5081357;28;20028;-78
2022/02/28 05:35:22;;;;;;;8.95;3.90;;;;;;;20.52;14.70;99573.47;5083563;28;20032;-79
2022/02/28 05:37:48;;;;;;;8.63;4.07;;;;;;;19.97;15.15;99570.13;5085592;28;20028;-81
2022/02/28 05:40:15;;;;;;;8.38;3.78;;;;;;;19.44;15.72;99579.41;5072518;28;20032;-84
2022/02/28 05:42:41;;;;;;;8.60;4.45;;;;;;;18.88;16.41;99578.19;5081513;28;20106;-80
2022/02/28 05:45:08;;;;;;;10.13;3.83;;;;;;;17.89;17.55;99581.22;5090888;28;20170;-80
2022/02/28 05:47:34;;;;;;;10.98;4.68;;;;;;;15.58;19.74;99595.63;5084463;28;20033;-80
2022/02/28 05:50:01;;;;;;;12.77;3.67;;;;;;;16.15;19.89;99599.22;5081431;28;20119;-81
2022/02/28 05:52:27;;;;;;;6.90;3.78;;;;;;;14.16;21.97;99608.56;5086453;28;20052;-81
2022/02/28 05:54:53;;;;;;;7.18;3.42;;;;;;;14.15;22.44;99604.16;5082308;28;20485;-80
2022/02/28 05:57:19;;;;;;;14.50;4.57;;;;;;;17.52;18.76;99602.84;5085439;28;20532;-80
2022/02/28 05:59:45;;;;;;;10.80;4.55;;;;;;;18.89;17.05;99597.28;5089510;28;20030;-79
2022/02/28 06:02:11;;;;;;;11.10;4.60;;;;;;;19.55;16.45;99601.94;5085114;28;20020;-79
2022/02/28 06:04:37;;;;;;;13.73;4.35;;;;;;;17.94;17.45;99605.97;5072823;28;20027;-78
2022/02/28 06:07:03;;;;;;;17.17;5.93;;;;;;;18.15;17.92;99605.75;5082703;28;20486;-79
2022/02/28 06:09:30;;;;;;;12.35;4.63;;;;;;;18.93;16.84;99611.28;5089030;28;20035;-79
2022/02/28 06:11:56;;;;;;;14.52;5.15;;;;;;;16.71;19.21;99611.41;5079471;28;20028;-79
2022/02/28 06:14:22;;;;;;;12.70;5.68;;;;;;;14.57;21.10;99616.19;5085377;28;20390;-79
2022/02/28 06:16:48;;;;;;;12.05;4.40;;;;;;;16.24;19.59;99624.06;5085756;28;20040;-79
2022/02/28 06:19:14;;;;;;;11.18;4.45;;;;;;;14.71;21.35;99625.06;5089451;28;20078;-79
2022/02/28 06:21:41;;;;;;;8.75;4.07;;;;;;;15.74;19.94;99618.75;5085020;28;20024;-79
2022/02/28 06:24:07;;;;;;;18.75;4.32;;;;;;;16.51;19.47;99618.69;5064107;28;20048;-79
2022/02/28 06:26:33;;;;;;;8.55;4.32;;;;;;;14.15;21.59;99626.25;5084035;28;20028;-79
2022/02/28 06:29:00;;;;;;;11.05;4.85;;;;;;;15.93;20.20;99630.13;5084700;28;20452;-79
2022/02/28 06:31:26;;;;;;;10.05;4.43;;;;;;;16.58;19.26;99629.22;5089593;28;20040;-79
2022/02/28 06:33:52;;;;;;;11.07;4.32;;;;;;;16.14;19.95;99630.88;5083478;28;20028;-79
2022/02/28 06:36:18;;;;;;;12.02;6.00;;;;;;;15.31;20.84;99630.16;5084538;28;20036;-80
2022/02/28 06:38:44;;;;;;;8.95;4.00;;;;;;;17.74;18.52;99623.66;5096666;28;20484;-79
2022/02/28 06:41:10;;;;;;;8.88;3.90;;;;;;;16.76;18.95;99627.81;5066412;28;20404;-80
2022/02/28 06:43:36;;;;;;;8.05;4.80;;;;;;;15.70;20.36;99629.69;5080992;28;20047;-81
2022/02/28 06:46:03;;;;;;;11.57;4.43;;;;;;;15.69;20.16;99628.06;5086430;28;20036;-79
2022/02/28 06:48:29;;;;;;;9.13;4.07;;;;;;;15.51;20.66;99639.66;5084721;28;20040;-79
2022/02/28 06:50:55;;;;;;;10.85;4.68;;;;;;;16.27;19.88;99642.75;5084365;28;20122;-80
2022/02/28 06:53:23;;;;;;;10.40;3.90;;;;;;;17.21;19.16;99642.34;5090182;28;20028;-79
2022/02/28 06:55:52;;;;;;;9.75;4.15;;;;;;;16.24;20.08;99646.25;5082723;28;20110;-79
2022/02/28 06:58:21;;;;;;;8.10;3.97;;;;;;;15.69;20.83;99649.41;5088146;28;20031;-79
2022/02/28 07:00:52;;;;;;;9.27;3.95;;;;;;;17.40;19.36;99655.59;5084987;28;20024;-79
2022/02/28 07:03:18;;;;;;;;;;;;;;;15.72;20.36;99657.03;5085209;28;20040;-78
2022/02/28 07:05:48;;;;;;;12.23;4.53;;;;;;;15.34;20.86;99659.94;5085025;28;19935;-81
2022/02/28 07:08:15;;;;;;;7.60;4.10;;;;;;;16.63;20.36;99665.03;5081706;28;20032;-78
2022/02/28 07:10:46;;;;;;;11.43;5.18;;;;;;;16.01;20.53;99658.88;5086033;28;20067;-78
2022/02/28 07:13:14;;;;;;;10.43;5.63;;;;;;;14.80;22.50;99663.69;5073629;28;20025;-78
2022/02/28 07:15:44;;;;;;;9.15;4.03;;;;;;;13.37;23.70;99676.38;5084464;28;20051;-78
2022/02/28 07:18:11;;;;;;;9.65;3.38;;;;;;;13.83;23.62;99663.53;5090987;28;20091;-78
2022/02/28 07:20:37;;;;;;;6.32;3.40;;;;;;;12.06;25.76;99674.63;5084670;28;20120;-78
2022/02/28 07:23:05;;;;;;;10.57;4.60;;;;;;;14.40;23.51;99672.34;5079393;28;20063;-78
2022/02/28 07:25:33;;;;;;;11.05;4.38;;;;;;;12.11;25.90;99669.78;5083549;28;20051;-78
2022/02/28 07:27:59;;;;;;;11.13;4.65;;;;;;;11.53;27.20;99677.28;5091478;28;20040;-78
2022/02/28 07:30:25;;;;;;;11.70;4.88;;;;;;;10.40;28.99;99682.78;5086255;28;20185;-79
2022/02/28 07:32:51;;;;;;;9.07;4.30;;;;;;;11.11;28.39;99690.34;5085385;28;20111;-78
2022/02/28 07:35:18;;;;;;;8.63;3.97;;;;;;;12.08;26.50;99683.38;5080439;28;20082;-79
2022/02/28 07:37:45;;;;;;;7.70;3.83;;;;;;;12.90;25.99;99695.41;5081267;28;20040;-79
2022/02/28 07:40:11;;;;;;;8.90;5.25;;;;;;;13.08;26.10;99707.31;5089485;28;20031;-78
2022/02/28 07:42:38;;;;;;;11.30;4.65;;;;;;;11.16;28.17;99708.66;5086257;28;20045;-79
2022/02/28 07:45:06;;;;;;;8.30;3.80;;;;;;;12.51;25.66;99700.13;5088499;28;20036;-79
2022/02/28 07:47:33;;;;;;;8.63;3.33;;;;;;;11.85;26.28;99701.88;5085076;28;20119;-79
2022/02/28 07:49:59;;;;;;;10.02;4.03;;;;;;;11.72;27.18;99703.53;5075200;28;20503;-78
2022/02/28 07:52:27;;;;;;;9.98;3.85;;;;;;;12.92;24.77;99711.63;5103480;28;20493;-79
2022/02/28 07:54:53;;;;;;;9.77;4.03;;;;;;;14.11;23.34;99707.31;5088679;28;20059;-79
2022/02/28 07:57:19;;;;;;;11.07;4.30;;;;;;;12.95;25.47;99708.22;5090884;28;20039;-79
2022/02/28 07:59:45;;;;;;;5.45;3.35;;;;;;;15.90;21.89;99702.81;5086760;28;20056;-79
2022/02/28 08:02:11;;;;;;;8.02;4.20;;;;;;;15.16;22.63;99703.53;5089069;28;20032;-79
2022/02/28 08:04:37;;;;;;;6.78;3.90;;;;;;;16.44;20.29;99706.31;5092161;28;20497;-79
2022/02/28 08:07:03;;;;;;;6.88;3.40;;;;;;;15.18;21.86;99700.41;5087648;28;20028;-79
2022/02/28 08:09:30;;;;;;;6.90;3.42;;;;;;;11.82;25.78;99707.97;5094325;28;20039;-78
2022/02/28 08:11:58;;;;;;;9.73;3.72;;;;;;;12.09;25.95;99713.34;5085128;28;20075;-79
2022/02/28 08:14:24;;;;;;;11.70;4.05;;;;;;;12.44;25.86;99712.41;5087903;28;20035;-79
2022/02/28 08:16:50;;;;;;;9.25;3.65;;;;;;;12.23;26.11;99729.78;5089409;28;20029;-79
2022/02/28 08:19:17;;;;;;;5.70;3.38;;;;;;;14.02;23.50;99717.59;5084625;28;20071;-79
2022/02/28 08:21:43;;;;;;;6.30;2.90;;;;;;;13.93;23.25;99723.13;5087038;28;20394;-79
2022/02/28 08:24:10;;;;;;;6.30;3.20;;;;;;;15.60;22.07;99721.47;5086599;28;20489;-79
2022/02/28 08:26:36;;;;;;;9.85;2.80;;;;;;;15.62;21.72;99719.16;5089933;28;20036;-79
2022/02/28 08:29:03;;;;;;;5.65;3.35;;;;;;;17.42;19.54;99728.22;5082454;28;20040;-79
2022/02/28 08:31:29;;;;;;;4.68;2.60;;;;;;;16.14;20.81;99732.56;5086549;28;20056;-79
2022/02/28 08:33:55;;;;;;;6.40;2.83;;;;;;;15.45;21.83;99724.81;5092748;28;20029;-79
2022/02/28 08:36:21;;;;;;;5.00;2.38;;;;;;;16.89;20.05;99725.72;5086393;28;20036;-79
2022/02/28 08:38:47;;;;;;;6.35;2.40;;;;;;;18.16;19.40;99721.31;5092935;28;20027;-79
2022/02/28 08:41:14;;;;;;;7.00;2.53;;;;;;;19.07;18.07;99717.38;5083711;28;20482;-78
2022/02/28 08:43:40;;;;;;;5.10;3.22;;;;;;;18.29;18.77;99725.66;5086563;28;20146;-79
2022/02/28 08:46:08;;;;;;;5.20;2.40;;;;;;;18.09;19.22;99727.47;5085514;28;20025;-79
2022/02/28 08:48:35;;;;;;;3.60;2.25;;;;;;;18.96;18.52;99722.69;5084350;28;20028;-79
2022/02/28 08:51:01;;;;;;;9.57;3.28;;;;;;;15.42;22.46;99736.56;5084057;28;20048;-79
2022/02/28 08:53:28;;;;;;;6.65;3.00;;;;;;;15.12;22.62;99738.50;5086763;28;20035;-79
2022/02/28 08:55:54;;;;;;;5.28;3.03;;;;;;;14.41;23.34;99740.28;5093164;28;20157;-80
2022/02/28 08:58:23;;;;;;;6.72;2.00;;;;;;;15.67;21.89;99740.31;5095986;28;20055;-78
2022/02/28 09:00:50;;;;;;;3.58;2.20;;;;;;;15.77;21.84;99740.72;5085048;28;20028;-79
2022/02/28 09:03:16;;;;;;;5.72;2.70;;;;;;;18.57;19.07;99732.03;5083411;28;20024;-79
2022/02/28 09:05:42;;;;;;;7.32;2.85;;;;;;;19.43;18.82;99736.59;5083414;28;20397;-79
2022/02/28 09:08:08;;;;;;;4.40;2.08;;;;;;;20.58;17.26;99722.69;5085937;28;20024;-79
2022/02/28 09:10:34;;;;;;;3.83;1.80;;;;;;;20.55;16.64;99727.03;5091526;28;20039;-79
2022/02/28 09:13:00;;;;;;;2.90;1.88;;;;;;;20.12;17.39;99726.53;5087582;28;20435;-79
2022/02/28 09:15:26;;;;;;;4.05;2.05;;;;;;;17.77;19.09;99736.84;5087562;28;20028;-79
2022/02/28 09:17:53;;;;;;;7.95;3.00;;;;;;;16.53;20.18;99734.78;5086764;28;20056;-79
2022/02/28 09:20:19;;;;;;;4.55;2.75;;;;;;;13.42;23.91;99751.50;5069225;28;20035;-79
2022/02/28 09:22:45;;;;;;;4.45;2.58;;;;;;;13.73;24.19;99745.84;5064837;28;20039;-79
2022/02/28 09:25:11;;;;;;;4.32;2.42;;;;;;;13.99;23.10;99738.38;5087880;28;20036;-79
2022/02/28 09:27:39;;;;;;;4.10;1.98;;;;;;;15.88;21.66;99739.16;5085332;28;20032;-79
2022/02/28 09:30:06;;;;;;;6.65;2.75;;;;;;;16.54;20.38;99737.22;5084271;28;20037;-79
2022/02/28 09:32:32;;;;;;;6.50;2.60;;;;;;;18.17;18.68;99742.38;5086488;28;20035;-79
2022/02/28 09:34:58;;;;;;;4.07;2.03;;;;;;;17.56;19.54;99747.31;5085845;28;20500;-79
2022/02/28 09:37:24;;;;;;;5.15;2.17;;;;;;;17.63;19.96;99744.75;5083168;28;20506;-79
2022/02/28 09:39:50;;;;;;;6.90;3.70;;;;;;;17.60;19.72;99745.44;5086324;28;20035;-79
2022/02/28 09:42:18;;;;;;;4.10;2.10;;;;;;;16.40;21.48;99742.25;5075615;28;20038;-79
2022/02/28 09:44:46;;;;;;;5.68;2.55;;;;;;;17.90;19.16;99750.34;5092330;28;20045;-79
2022/02/28 09:47:13;;;;;;;4.90;2.10;;;;;;;17.89;18.91;99757.09;5088499;28;20037;-79
2022/02/28 09:49:39;;;;;;;5.70;2.35;;;;;;;18.56;18.45;99742.34;5082525;28;20043;-79
2022/02/28 09:52:06;;;;;;;5.30;2.80;;;;;;;16.18;21.36;99750.13;5084974;28;20063;-80
2022/02/28 09:54:33;;;;;;;4.57;2.53;;;;;;;15.73;21.86;99750.84;5090105;28;20029;-80
2022/02/28 09:57:01;;;;;;;5.10;2.35;;;;;;;16.98;20.68;99748.59;5082993;28;20036;-79
2022/02/28 09:59:27;;;;;;;3.42;1.90;;;;;;;16.64;19.85;99746.25;5086038;28;20085;-79
2022/02/28 10:01:53;;;;;;;4.75;2.05;;;;;;;14.53;22.81;99764.47;5089816;28;20112;-79
2022/02/28 10:04:19;;;;;;;4.68;2.17;;;;;;;14.15;23.03;99763.53;5090398;28;20043;-79
2022/02/28 10:06:46;;;;;;;4.20;2.20;;;;;;;16.46;21.03;99759.47;5083122;28;20035;-79
2022/02/28 10:09:20;;;;;;;4.22;2.25;;;;;;;18.52;18.71;99749.78;5082948;28;20031;-79
2022/02/28 10:11:52;;;;;;;5.47;2.05;;;;;;;18.48;18.26;99750.84;5087310;28;20105;-79
2022/02/28 10:14:19;;;;;;;3.85;2.13;;;;;;;18.73;17.78;99748.72;5092424;28;20028;-79
2022/02/28 10:16:57;;;;;;;4.22;1.83;;;;;;;16.09;19.32;99754.94;5083989;28;20095;-79
2022/02/28 10:19:24;;;;;;;5.07;2.30;;;;;;;15.64;20.59;99747.31;5085121;28;20497;-79
2022/02/28 10:21:53;;;;;;;3.55;1.80;;;;;;;15.43;21.77;99746.47;5084471;28;20498;-79
2022/02/28 10:24:21;;;;;;;5.38;1.88;;;;;;;16.56;19.96;99737.69;5083019;28;20039;-79
2022/02/28 10:26:57;;;;;;;5.32;2.33;;;;;;;15.01;22.17;99739.22;5086951;28;20566;-79
2022/02/28 10:29:28;;;;;;;3.47;2.03;;;;;;;15.60;21.59;99738.09;5068894;28;20397;-79
2022/02/28 10:32:03;;;;;;;3.97;2.20;;;;;;;13.18;23.44;99750.31;5083172;28;20431;-79
2022/02/28 10:34:30;;;;;;;7.82;1.92;;;;;;;13.18;23.40;99739.28;5087116;28;20438;-79
2022/02/28 10:36:56;;;;;;;3.42;1.60;;;;;;;12.59;24.73;99748.94;5082661;28;20024;-79
2022/02/28 10:39:28;;;;;;;5.35;1.92;;;;;;;11.41;25.40;99754.84;5086547;28;20426;-79
2022/02/28 10:41:58;;;;;;;4.18;1.95;;;;;;;11.97;24.93;99748.06;5083301;28;20120;-79
2022/02/28 10:44:24;;;;;;;4.43;1.85;;;;;;;12.16;24.70;99755.00;5084393;28;20016;-79
2022/02/28 10:46:50;;;;;;;3.40;2.15;;;;;;;11.64;25.34;99759.28;5085795;28;20442;-79
2022/02/28 10:49:20;;;;;;;5.80;2.20;;;;;;;12.24;24.87;99753.44;5080427;28;20036;-79
2022/02/28 10:51:58;;;;;;;7.43;2.38;;;;;;;13.81;22.24;99747.81;5088205;28;20085;-79
2022/02/28 10:54:31;;;;;;;6.00;2.17;;;;;;;12.62;23.74;99749.13;5082867;28;20114;-79
2022/02/28 10:57:03;;;;;;;7.60;2.20;;;;;;;13.05;23.54;99741.00;5089600;28;20032;-78
2022/02/28 10:59:40;;;;;;;7.28;2.45;;;;;;;14.81;21.33;99743.56;5085358;28;20032;-79
2022/02/28 11:02:08;;;;;;;6.65;2.13;;;;;;;16.89;19.23;99739.59;5083868;28;20027;-79
2022/02/28 11:04:40;;;;;;;3.55;1.90;;;;;;;18.06;18.23;99749.63;5081032;28;20114;-78
2022/02/28 11:07:10;;;;;;;3.10;1.63;;;;;;;17.34;18.24;99736.69;5086594;28;20398;-79
2022/02/28 11:09:39;;;;;;;6.40;2.40;;;;;;;18.97;17.24;99727.09;5087927;28;20066;-79
2022/02/28 11:12:29;;;;;;;3.30;1.67;;;;;;;16.09;19.62;99743.84;5073390;28;20119;-79
2022/02/28 11:15:01;;;;;;;5.32;2.08;;;;;;;16.45;19.12;99738.44;5086043;28;20367;-79
2022/02/28 11:17:32;;;;;;;3.25;1.10;;;;;;;16.62;19.14;99741.03;5083922;28;23988;-79
2022/02/28 11:20:00;;;;;;;;;;;;;;;16.04;18.67;99728.25;5083862;28;20044;-79
2022/02/28 11:22:27;;;;;;;3.67;1.15;;;;;;;14.09;20.78;99746.31;5081302;28;19920;-79
2022/02/28 11:24:55;;;;;;;4.47;1.70;;;;;;;15.03;20.51;99745.22;5085718;28;20055;-79
2022/02/28 11:27:23;;;;;;;2.40;1.20;;;;;;;14.79;20.65;99756.91;5084919;28;20507;-79